createdAt,value
2022-10-21T00:00:11.142Z,9.80
2022-10-21T00:02:59.735Z,9.77
2022-10-21T00:05:46.309Z,9.74
2022-10-21T00:08:32.522Z,9.73
2022-10-21T00:11:18.933Z,9.68
2022-10-21T00:14:05.309Z,9.72
2022-10-21T00:16:51.741Z,9.68
2022-10-21T00:19:40.021Z,9.66
2022-10-21T00:22:25.989Z,9.64
2022-10-21T00:25:12.121Z,9.60
2022-10-21T00:27:58.132Z,9.59
2022-10-21T00:30:45.532Z,9.53
2022-10-21T00:33:31.643Z,9.54
2022-10-21T00:36:18.136Z,9.44
2022-10-21T00:39:04.285Z,9.53
2022-10-21T00:41:50.523Z,9.52
2022-10-21T00:44:37.652Z,9.48
2022-10-21T00:47:23.783Z,9.43
2022-10-21T00:50:19.236Z,9.41
2022-10-21T00:53:07.371Z,9.32
2022-10-21T00:55:56.536Z,9.34
2022-10-21T00:58:42.433Z,9.33
2022-10-21T01:01:28.557Z,9.29
2022-10-21T01:04:14.524Z,9.23
2022-10-21T01:07:00.933Z,9.24
2022-10-21T01:09:46.965Z,9.23
2022-10-21T01:12:44.442Z,9.26
2022-10-21T01:15:39.568Z,9.23
2022-10-21T01:18:39.943Z,9.11
2022-10-21T01:22:03.104Z,9.02
2022-10-21T01:24:55.249Z,9.07
2022-10-21T01:27:52.181Z,9.02
2022-10-21T01:31:22.721Z,8.97
2022-10-21T01:34:21.046Z,8.96
2022-10-21T01:37:23.909Z,8.96
2022-10-21T01:40:16.966Z,8.96
2022-10-21T01:43:17.116Z,8.97
2022-10-21T01:46:19.543Z,8.86
2022-10-21T01:49:14.084Z,8.92
2022-10-21T01:52:01.108Z,8.86
2022-10-21T01:54:52.412Z,8.85
2022-10-21T01:57:41.658Z,8.81
2022-10-21T02:00:27.644Z,8.80
2022-10-21T02:03:19.561Z,8.82
2022-10-21T02:06:05.540Z,8.80
2022-10-21T02:08:51.696Z,8.78
2022-10-21T02:11:39.272Z,8.80
2022-10-21T02:14:31.693Z,8.76
2022-10-21T02:17:19.809Z,8.75
2022-10-21T02:20:09.593Z,8.73
2022-10-21T02:22:55.521Z,8.72
2022-10-21T02:25:42.949Z,8.71
2022-10-21T02:28:29.588Z,8.70
2022-10-21T02:31:21.892Z,8.73
2022-10-21T02:34:16.840Z,8.64
2022-10-21T02:37:24.632Z,8.56
2022-10-21T02:40:16.115Z,8.55
2022-10-21T02:43:09.433Z,8.52
2022-10-21T02:46:02.547Z,8.54
2022-10-21T02:48:48.375Z,8.45
2022-10-21T02:51:34.847Z,8.50
2022-10-21T02:54:20.999Z,8.51
2022-10-21T02:57:06.973Z,8.46
2022-10-21T02:59:53.114Z,8.45
2022-10-21T03:02:39.144Z,8.49
2022-10-21T03:05:25.229Z,8.43
2022-10-21T03:08:11.177Z,8.43
2022-10-21T03:10:57.265Z,8.40
2022-10-21T03:13:43.310Z,8.40
2022-10-21T03:16:29.440Z,8.37
2022-10-21T03:19:15.468Z,8.39
2022-10-21T03:22:01.547Z,8.33
2022-10-21T03:24:47.533Z,8.35
2022-10-21T03:27:33.510Z,8.29
2022-10-21T03:30:19.738Z,8.20
2022-10-21T03:33:05.655Z,8.32
2022-10-21T03:35:51.609Z,8.25
2022-10-21T03:38:37.692Z,8.27
2022-10-21T03:41:23.567Z,8.16
2022-10-21T03:44:09.667Z,8.21
2022-10-21T03:46:55.559Z,8.18
2022-10-21T03:49:41.561Z,8.15
2022-10-21T03:52:27.796Z,8.13
2022-10-21T03:55:13.647Z,8.11
2022-10-21T03:57:59.678Z,8.07
2022-10-21T04:00:45.710Z,8.06
2022-10-21T04:03:31.753Z,8.03
2022-10-21T04:06:17.871Z,8.01
2022-10-21T04:09:04.100Z,7.98
2022-10-21T04:11:50.202Z,7.96
2022-10-21T04:14:36.403Z,7.91
2022-10-21T04:17:22.386Z,7.93
2022-10-21T04:20:10.455Z,7.86
2022-10-21T04:22:56.476Z,7.87
2022-10-21T04:25:44.283Z,7.84
2022-10-21T04:28:29.985Z,7.77
2022-10-21T04:31:15.995Z,7.79
2022-10-21T04:34:02.022Z,7.74
2022-10-21T04:36:48.054Z,7.73
2022-10-21T04:39:34.222Z,7.64
2022-10-21T04:42:20.159Z,7.66
2022-10-21T04:45:06.693Z,7.61
2022-10-21T04:47:52.843Z,7.62
2022-10-21T04:50:39.044Z,7.60
2022-10-21T04:53:25.308Z,7.49
2022-10-21T04:56:11.543Z,7.50
2022-10-21T04:58:57.264Z,7.44
2022-10-21T05:01:43.343Z,7.47
2022-10-21T05:04:29.147Z,7.43
2022-10-21T05:07:15.134Z,7.37
2022-10-21T05:10:01.154Z,7.36
2022-10-21T05:12:47.214Z,7.33
2022-10-21T05:15:33.663Z,7.35
2022-10-21T05:18:19.509Z,7.33
2022-10-21T05:21:05.601Z,7.32
2022-10-21T05:23:51.874Z,7.30
2022-10-21T05:26:37.671Z,7.29
2022-10-21T05:29:23.670Z,7.22
2022-10-21T05:32:09.812Z,7.26
2022-10-21T05:34:55.775Z,7.25
2022-10-21T05:37:41.762Z,7.26
2022-10-21T05:40:27.806Z,7.16
2022-10-21T05:43:14.122Z,7.23
2022-10-21T05:46:00.106Z,7.28
2022-10-21T05:48:45.919Z,7.21
2022-10-21T05:51:31.899Z,7.27
2022-10-21T05:54:17.981Z,7.28
2022-10-21T05:57:04.186Z,7.34
2022-10-21T05:59:50.368Z,7.31
2022-10-21T06:02:36.851Z,7.37
2022-10-21T06:05:22.996Z,7.36
2022-10-21T06:08:08.930Z,7.34
2022-10-21T06:11:08.878Z,7.39
2022-10-21T06:13:55.014Z,7.41
2022-10-21T06:16:41.142Z,7.48
2022-10-21T06:19:27.008Z,7.49
2022-10-21T06:22:12.981Z,7.49
2022-10-21T06:24:58.949Z,7.53
2022-10-21T06:27:44.808Z,7.56
2022-10-21T06:30:30.847Z,7.59
2022-10-21T06:33:16.748Z,7.64
2022-10-21T06:36:03.013Z,7.67
2022-10-21T06:38:49.133Z,7.71
2022-10-21T06:41:35.239Z,7.79
2022-10-21T06:44:21.064Z,7.85
2022-10-21T06:47:07.233Z,7.91
2022-10-21T06:49:53.608Z,7.92
2022-10-21T06:52:40.955Z,7.96
2022-10-21T06:55:26.907Z,8.04
2022-10-21T06:58:12.773Z,8.10
2022-10-21T07:00:59.168Z,8.11
2022-10-21T07:03:48.267Z,8.18
2022-10-21T07:09:20.450Z,8.32
2022-10-21T07:12:06.533Z,8.44
2022-10-21T07:14:52.528Z,8.48
2022-10-21T07:17:38.636Z,8.56
2022-10-21T07:20:24.930Z,8.66
2022-10-21T07:23:10.807Z,8.75
2022-10-21T07:25:56.957Z,8.81
2022-10-21T07:28:47.033Z,9.01
2022-10-21T07:31:36.311Z,9.06
2022-10-21T07:34:22.661Z,9.14
2022-10-21T07:37:08.470Z,9.18
2022-10-21T07:39:54.846Z,9.37
2022-10-21T07:42:40.855Z,9.48
2022-10-21T07:45:26.728Z,9.60
2022-10-21T07:48:12.599Z,9.73
2022-10-21T07:51:10.388Z,9.82
2022-10-21T07:53:57.338Z,9.95
2022-10-21T07:56:46.391Z,10.04
2022-10-21T07:59:32.494Z,10.17
2022-10-21T08:02:18.310Z,10.29
2022-10-21T08:05:05.359Z,10.43
2022-10-21T08:07:51.200Z,10.51
2022-10-21T08:10:41.114Z,10.61
2022-10-21T08:13:27.246Z,10.76
2022-10-21T08:16:13.293Z,10.81
2022-10-21T08:19:03.435Z,10.95
2022-10-21T08:21:49.695Z,11.08
2022-10-21T08:24:39.920Z,11.19
2022-10-21T08:27:28.894Z,11.32
2022-10-21T08:30:15.688Z,11.46
2022-10-21T08:33:01.450Z,11.57
2022-10-21T08:35:47.465Z,11.68
2022-10-21T08:38:33.457Z,11.83
2022-10-21T08:41:31.585Z,11.84
2022-10-21T08:44:35.293Z,12.02
2022-10-21T08:47:32.038Z,12.09
2022-10-21T08:50:40.663Z,12.16
2022-10-21T08:53:58.374Z,12.21
2022-10-21T08:56:44.454Z,12.39
2022-10-21T08:59:30.732Z,12.53
2022-10-21T09:02:24.563Z,12.55
2022-10-21T09:05:24.329Z,12.65
2022-10-21T09:08:28.447Z,12.80
2022-10-21T09:11:38.673Z,12.95
2022-10-21T09:14:50.978Z,13.04
2022-10-21T09:17:53.018Z,13.14
2022-10-21T09:20:45.759Z,13.33
2022-10-21T09:23:46.644Z,13.22
2022-10-21T09:26:43.543Z,13.47
2022-10-21T09:29:35.654Z,13.31
2022-10-21T09:35:39.078Z,13.44
2022-10-21T09:38:39.156Z,13.77
2022-10-21T09:41:30.459Z,13.98
2022-10-21T09:44:18.384Z,14.09
2022-10-21T09:47:17.917Z,14.19
2022-10-21T09:50:07.691Z,14.34
2022-10-21T09:53:18.779Z,14.29
2022-10-21T09:56:26.547Z,14.43
2022-10-21T09:59:14.953Z,14.57
2022-10-21T10:02:08.204Z,14.62
2022-10-21T10:04:54.257Z,14.76
2022-10-21T10:07:40.211Z,14.81
2022-10-21T10:10:33.730Z,14.84
2022-10-21T10:13:23.473Z,14.99
2022-10-21T10:16:30.518Z,14.95
2022-10-21T10:19:22.250Z,15.17
2022-10-21T10:22:14.851Z,15.19
2022-10-21T10:25:18.637Z,15.17
2022-10-21T10:28:10.919Z,15.45
2022-10-21T10:30:57.366Z,15.56
2022-10-21T10:33:56.600Z,15.53
2022-10-21T10:36:44.739Z,15.77
2022-10-21T10:39:33.212Z,15.91
2022-10-21T10:42:25.563Z,15.80
2022-10-21T10:45:22.627Z,15.87
2022-10-21T10:48:22.467Z,15.84
2022-10-21T10:51:29.807Z,15.82
2022-10-21T10:54:27.006Z,16.16
2022-10-21T10:57:20.586Z,16.22
2022-10-21T11:00:17.465Z,16.29
2022-10-21T11:03:08.000Z,16.37
2022-10-21T11:05:59.228Z,16.56
2022-10-21T11:08:51.798Z,16.61
2022-10-21T11:11:41.248Z,16.66
2022-10-21T11:14:27.060Z,16.81
2022-10-21T11:17:13.765Z,16.76
2022-10-21T11:20:27.179Z,16.77
2022-10-21T11:23:13.222Z,16.97
2022-10-21T11:26:06.497Z,16.97
2022-10-21T11:29:03.513Z,17.08
2022-10-21T11:32:09.977Z,17.28
2022-10-21T11:35:30.513Z,17.29
2022-10-21T11:38:22.712Z,17.44
2022-10-21T11:41:11.640Z,17.45
2022-10-21T11:44:17.164Z,17.48
2022-10-21T11:47:12.043Z,17.66
2022-10-21T11:50:28.063Z,17.60
2022-10-21T11:53:36.433Z,17.77
2022-10-21T11:56:43.127Z,17.73
2022-10-21T11:59:35.329Z,17.95
2022-10-21T12:02:26.771Z,18.02
2022-10-21T12:05:22.669Z,18.01
2022-10-21T12:08:17.084Z,18.11
2022-10-21T12:11:15.796Z,18.12
2022-10-21T12:14:46.662Z,18.20
2022-10-21T12:17:34.083Z,18.36
2022-10-21T12:20:24.093Z,18.41
2022-10-21T12:23:12.228Z,18.46
2022-10-21T12:26:18.334Z,18.46
2022-10-21T12:29:37.559Z,18.49
2022-10-21T12:32:32.033Z,18.64
2022-10-21T12:35:27.845Z,18.66
2022-10-21T12:38:40.404Z,18.73
2022-10-21T12:41:36.265Z,18.92
2022-10-21T12:44:27.163Z,18.91
2022-10-21T12:47:32.540Z,19.08
2022-10-21T12:50:29.033Z,19.18
2022-10-21T12:53:20.814Z,19.31
2022-10-21T12:56:07.971Z,19.39
2022-10-21T12:59:04.497Z,19.53
2022-10-21T13:02:05.821Z,19.60
2022-10-21T13:04:53.941Z,19.71
2022-10-21T13:07:40.338Z,19.94
2022-10-21T13:10:26.785Z,20.02
2022-10-21T13:13:28.800Z,20.16
2022-10-21T13:16:21.196Z,20.33
2022-10-21T13:19:16.571Z,20.54
2022-10-21T13:22:10.529Z,20.75
2022-10-21T13:24:56.340Z,20.85
2022-10-21T13:28:07.949Z,21.08
2022-10-21T13:30:59.146Z,21.45
2022-10-21T13:33:53.121Z,21.83
2022-10-21T13:36:42.847Z,22.12
2022-10-21T13:39:31.922Z,22.52
2022-10-21T13:42:20.685Z,22.67
2022-10-21T13:45:20.015Z,22.36
2022-10-21T13:48:07.153Z,22.61
2022-10-21T13:50:53.516Z,22.43
2022-10-21T13:53:45.600Z,22.31
2022-10-21T13:56:33.880Z,22.15
2022-10-21T13:59:24.582Z,21.99
2022-10-21T14:02:24.750Z,21.76
2022-10-21T14:05:46.710Z,21.64
2022-10-21T14:08:38.212Z,21.48
2022-10-21T14:11:27.603Z,21.36
2022-10-21T14:14:16.269Z,21.29
2022-10-21T14:17:05.722Z,21.16
2022-10-21T14:19:54.141Z,21.08
2022-10-21T14:22:40.686Z,20.99
2022-10-21T14:25:27.458Z,20.88
2022-10-21T14:28:14.148Z,20.82
2022-10-21T14:31:01.667Z,20.74
2022-10-21T14:33:49.748Z,20.63
2022-10-21T14:37:11.819Z,20.48
2022-10-21T14:40:10.592Z,20.29
2022-10-21T14:42:56.524Z,20.26
2022-10-21T14:45:53.382Z,20.13
2022-10-21T14:48:45.600Z,20.02
2022-10-21T14:51:36.779Z,19.88
2022-10-21T14:54:43.621Z,19.80
2022-10-21T14:57:50.377Z,19.44
2022-10-21T15:00:41.718Z,19.69
2022-10-21T15:04:03.455Z,19.48
2022-10-21T15:07:00.532Z,19.47
2022-10-21T15:09:56.828Z,19.35
2022-10-21T15:12:43.971Z,19.33
2022-10-21T15:15:54.188Z,19.07
2022-10-21T15:18:52.698Z,19.12
2022-10-21T15:22:00.043Z,18.91
2022-10-21T15:24:46.344Z,18.89
2022-10-21T15:27:37.010Z,18.79
2022-10-21T15:30:23.465Z,18.74
2022-10-21T15:33:12.125Z,18.67
2022-10-21T15:36:06.150Z,18.52
2022-10-21T15:38:52.337Z,18.54
2022-10-21T15:41:38.474Z,18.46
2022-10-21T15:44:34.884Z,18.36
2022-10-21T15:47:21.050Z,18.29
2022-10-21T15:50:14.864Z,18.13
2022-10-21T15:53:00.968Z,18.15
2022-10-21T15:55:46.799Z,18.03
2022-10-21T15:58:32.680Z,17.94
2022-10-21T16:01:18.663Z,17.82
2022-10-21T16:04:04.665Z,17.78
2022-10-21T16:06:51.884Z,17.67
2022-10-21T16:09:37.834Z,17.56
2022-10-21T16:12:23.714Z,17.51
2022-10-21T16:15:10.451Z,17.38
2022-10-21T16:17:57.755Z,17.33
2022-10-21T16:20:43.903Z,17.24
2022-10-21T16:23:31.655Z,17.14
2022-10-21T16:26:26.017Z,17.03
2022-10-21T16:29:21.177Z,16.97
2022-10-21T16:32:09.137Z,16.86
2022-10-21T16:34:55.152Z,16.83
2022-10-21T16:37:42.422Z,16.65
2022-10-21T16:40:32.830Z,16.64
2022-10-21T16:43:18.932Z,16.53
2022-10-21T16:46:04.995Z,16.50
2022-10-21T16:48:51.080Z,16.34
2022-10-21T16:51:38.416Z,16.33
2022-10-21T16:54:24.753Z,16.19
2022-10-21T16:57:10.943Z,16.17
2022-10-21T16:59:56.960Z,16.12
2022-10-21T17:02:44.372Z,16.07
2022-10-21T17:05:30.602Z,16.02
2022-10-21T17:08:16.948Z,15.94
2022-10-21T17:11:06.220Z,15.90
2022-10-21T17:13:52.147Z,15.88
2022-10-21T17:16:40.116Z,15.73
2022-10-21T17:19:26.245Z,15.78
2022-10-21T17:22:19.342Z,15.57
2022-10-21T17:25:06.138Z,15.67
2022-10-21T17:27:52.481Z,15.67
2022-10-21T17:30:38.659Z,15.60
2022-10-21T17:33:24.778Z,15.56
2022-10-21T17:36:11.160Z,15.49
2022-10-21T17:38:57.395Z,15.41
2022-10-21T17:41:43.335Z,15.40
2022-10-21T17:44:29.388Z,15.39
2022-10-21T17:47:15.873Z,15.30
2022-10-21T17:50:01.993Z,15.24
2022-10-21T17:52:48.101Z,15.18
2022-10-21T17:55:33.906Z,15.23
2022-10-21T17:58:20.178Z,15.16
2022-10-21T18:01:08.614Z,15.14
2022-10-21T18:03:58.103Z,15.09
2022-10-21T18:06:44.339Z,15.05
2022-10-21T18:09:30.608Z,14.97
2022-10-21T18:12:17.629Z,14.90
2022-10-21T18:15:04.158Z,14.91
2022-10-21T18:17:49.985Z,14.83
2022-10-21T18:20:36.834Z,14.81
2022-10-21T18:23:23.419Z,14.79
2022-10-21T18:26:14.889Z,14.66
2022-10-21T18:29:03.059Z,14.73
2022-10-21T18:31:49.613Z,14.62
2022-10-21T18:34:35.861Z,14.64
2022-10-21T18:37:21.798Z,14.50
2022-10-21T18:40:08.694Z,14.55
2022-10-21T18:42:54.767Z,14.48
2022-10-21T18:45:45.562Z,14.40
2022-10-21T18:48:32.161Z,14.38
2022-10-21T18:51:23.243Z,14.34
2022-10-21T18:54:09.615Z,14.34
2022-10-21T18:56:55.610Z,14.38
2022-10-21T18:59:41.906Z,14.40
2022-10-21T19:02:28.310Z,14.33
2022-10-21T19:05:14.590Z,14.31
2022-10-21T19:08:00.876Z,14.30
2022-10-21T19:10:47.190Z,14.23
2022-10-21T19:13:33.348Z,14.22
2022-10-21T19:16:19.310Z,14.18
2022-10-21T19:19:05.961Z,14.22
2022-10-21T19:21:52.330Z,14.15
2022-10-21T19:24:38.505Z,14.18
2022-10-21T19:27:24.552Z,14.10
2022-10-21T19:30:11.113Z,14.00
2022-10-21T19:33:00.440Z,14.03
2022-10-21T19:35:46.571Z,14.07
2022-10-21T19:38:43.728Z,14.00
2022-10-21T19:41:30.079Z,13.95
2022-10-21T19:44:16.387Z,13.95
2022-10-21T19:47:02.547Z,13.86
2022-10-21T19:49:48.641Z,13.92
2022-10-21T19:52:34.693Z,13.80
2022-10-21T19:55:21.657Z,13.87
2022-10-21T19:58:07.767Z,13.81
2022-10-21T20:01:05.207Z,13.74
2022-10-21T20:03:51.958Z,13.79
2022-10-21T20:06:38.886Z,13.76
2022-10-21T20:09:25.113Z,13.75
2022-10-21T20:12:11.283Z,13.58
2022-10-21T20:14:58.086Z,13.56
2022-10-21T20:17:44.043Z,13.58
2022-10-21T20:20:30.353Z,13.60
2022-10-21T20:23:16.784Z,13.61
2022-10-21T20:26:03.559Z,13.60
2022-10-21T20:28:50.985Z,13.52
2022-10-21T20:31:37.067Z,13.53
2022-10-21T20:34:41.912Z,13.25
2022-10-21T20:37:27.739Z,13.47
2022-10-21T20:40:13.802Z,13.45
2022-10-21T20:42:59.766Z,13.43
2022-10-21T20:45:45.601Z,13.32
2022-10-21T20:48:32.093Z,13.43
2022-10-21T20:51:20.587Z,13.37
2022-10-21T20:54:09.583Z,13.32
2022-10-21T20:56:55.360Z,13.30
2022-10-21T20:59:41.207Z,13.29
2022-10-21T21:02:27.121Z,13.29
2022-10-21T21:05:13.114Z,13.28
2022-10-21T21:07:59.236Z,13.21
2022-10-21T21:10:45.437Z,13.20
2022-10-21T21:13:31.553Z,13.16
2022-10-21T21:16:19.698Z,13.11
2022-10-21T21:19:07.913Z,13.05
2022-10-21T21:21:53.878Z,13.04
2022-10-21T21:24:40.464Z,13.05
2022-10-21T21:27:28.797Z,13.01
2022-10-21T21:30:14.919Z,12.92
2022-10-21T21:33:00.955Z,12.86
2022-10-21T21:35:47.037Z,12.84
2022-10-21T21:38:33.939Z,12.79
2022-10-21T21:41:21.221Z,12.78
2022-10-21T21:44:07.455Z,12.75
2022-10-21T21:46:53.362Z,12.72
2022-10-21T21:49:39.285Z,12.70
2022-10-21T21:52:26.142Z,12.64
2022-10-21T21:55:12.299Z,12.67
2022-10-21T21:57:58.248Z,12.64
2022-10-21T22:00:44.120Z,12.56
2022-10-21T22:03:30.266Z,12.49
2022-10-21T22:06:19.448Z,12.61
2022-10-21T22:09:11.889Z,12.47
2022-10-21T22:11:58.091Z,12.54
2022-10-21T22:14:44.179Z,12.51
2022-10-21T22:17:29.987Z,12.48
2022-10-21T22:20:16.783Z,12.43
2022-10-21T22:23:03.082Z,12.39
2022-10-21T22:25:49.177Z,12.39
2022-10-21T22:28:35.522Z,12.35
2022-10-21T22:31:27.171Z,12.26
2022-10-21T22:34:16.249Z,12.15
2022-10-21T22:37:02.265Z,12.19
2022-10-21T22:39:48.129Z,12.21
2022-10-21T22:42:34.222Z,12.12
2022-10-21T22:45:20.271Z,12.12
2022-10-21T22:48:06.209Z,12.10
2022-10-21T22:50:52.092Z,12.09
2022-10-21T22:53:37.947Z,12.08
2022-10-21T22:56:25.257Z,12.05
2022-10-21T22:59:10.995Z,11.99
2022-10-21T23:01:56.889Z,11.97
2022-10-21T23:04:42.973Z,11.97
2022-10-21T23:07:28.890Z,11.88
2022-10-21T23:10:15.017Z,11.94
2022-10-21T23:13:01.312Z,11.94
2022-10-21T23:15:47.958Z,11.96
2022-10-21T23:18:34.097Z,11.93
2022-10-21T23:21:19.915Z,11.92
2022-10-21T23:24:06.462Z,11.93
2022-10-21T23:26:54.498Z,11.88
2022-10-21T23:29:43.774Z,11.86
2022-10-21T23:32:29.752Z,11.84
2022-10-21T23:35:16.044Z,11.82
2022-10-21T23:38:02.261Z,11.78
2022-10-21T23:40:48.255Z,11.76
2022-10-21T23:43:34.341Z,11.76
2022-10-21T23:46:21.154Z,11.76
2022-10-21T23:49:07.106Z,11.71
2022-10-21T23:51:53.041Z,11.69
2022-10-21T23:54:38.861Z,11.65
2022-10-21T23:57:26.079Z,11.57
